Flight Track Log - Related Links

Times and Time Zones

All times are in EDT time to prevent confusion due to time zone crossing. See the POE468 flight status page for this flight to view local times or setup timezone preferences in your user account.

Time Position Orientation Groundspeed Altitude Reporting Facility
EDT Latitude Longitude Course Direction KTS MPH feet Rate Location/Type
Sun 06:51:03 PM 46.3000 -74.8000 215° Southwest 190 219 5,500  Level Montreal Center
Sun 06:52:03 PM 46.2500 -74.8500 215° Southwest 200 230 8,200 2,850 Climbing Montreal Center
Sun 06:53:03 PM 46.2000 -74.9000 215° Southwest 220 253 11,200 2,400 Climbing Montreal Center
Sun 06:54:03 PM 46.1500 -74.9500 215° Southwest 250 288 13,000 1,750 Climbing Montreal Center
Sun 06:55:03 PM 46.1000 -75.0167 223° Southwest 270 311 14,700 1,700 Climbing Montreal Center
Sun 06:56:03 PM 46.0500 -75.1000 229° Southwest 290 334 16,400 1,750 Climbing Montreal Center
Sun 06:57:03 PM 45.9833 -75.1500 208° Southwest 290 334 18,200 1,700 Climbing Montreal Center
Sun 06:58:03 PM 45.9167 -75.2167 215° Southwest 290 334 19,800 1,700 Climbing Montreal Center
Sun 06:59:03 PM 45.8500 -75.2667 208° Southwest 290 334 21,600 1,100 Climbing Montreal Center
Sun 07:00:03 PM 45.7833 -75.3500 221° Southwest 300 345 22,000 200 Climbing Montreal Center
Sun 07:01:03 PM 45.7000 -75.4167 209° Southwest 330 380 22,000  Level Montreal Center
Sun 07:02:03 PM 45.6167 -75.4833 209° Southwest 340 391 22,000  Level Montreal Center
Sun 07:03:03 PM 45.5333 -75.5667 215° Southwest 340 391 22,000  Level Montreal Center
Sun 07:04:03 PM 45.4333 -75.6333 205° Southwest 340 391 22,000  Level Montreal Center
Sun 07:05:03 PM 45.3667 -75.6833 208° Southwest 340 391 22,000  Level Montreal Center
Sun 07:06:03 PM 45.2833 -75.7500 209° Southwest 340 391 22,000  Level Montreal Center
Sun 07:07:03 PM 45.2000 -75.8333 215° Southwest 340 391 22,000  Level Montreal Center
Sun 07:08:03 PM 45.1167 -75.9000 209° Southwest 340 391 22,000  Level Montreal Center
Sun 07:09:03 PM 45.0333 -75.9667 209° Southwest 340 391 22,000  Level Montreal Center
Sun 07:10:03 PM 44.9500 -76.0333 210° Southwest 340 391 22,000  Level Montreal Center
Sun 07:11:03 PM 44.8833 -76.1167 222° Southwest 340 391 22,000  Level Montreal Center
Sun 07:12:03 PM 44.8000 -76.1833 210° Southwest 340 391 22,000  Level Montreal Center
Sun 07:13:03 PM 44.7167 -76.2500 210° Southwest 330 380 22,000  Level Montreal Center
Sun 07:14:03 PM 44.6500 -76.3500 227° Southwest 330 380 22,000  Level Montreal Center
Sun 07:14:56 PM 44.6000 -76.4000 215° Southwest 330 380 22,000  Level Toronto Center
Sun 07:15:56 PM 44.5333 -76.5000 227° Southwest 330 380 22,000  Level Toronto Center
Sun 07:16:56 PM 44.4667 -76.5667 216° Southwest 330 380 22,000  Level Toronto Center
Sun 07:17:56 PM 44.4167 -76.6667 235° Southwest 330 380 22,000  Level Toronto Center
Sun 07:19:03 PM 44.3500 -76.8167 238° Southwest 330 380 22,000  Level Montreal Center
Sun 07:20:03 PM 44.2833 -76.9000 222° Southwest 320 368 22,000  Level Montreal Center
Sun 07:21:03 PM 44.2167 -76.9667 216° Southwest 320 368 22,000  Level Montreal Center
Sun 07:22:03 PM 44.1500 -77.0833 231° Southwest 320 368 22,000  Level Montreal Center
Sun 07:22:56 PM 44.1000 -77.1167 206° Southwest 320 368 22,000  Level Toronto Center
Sun 07:23:56 PM 44.0333 -77.2167 227° Southwest 320 368 22,000  Level Toronto Center
Sun 07:24:56 PM 43.9667 -77.3000 222° Southwest 320 368 22,000  Level Toronto Center
Sun 07:25:56 PM 43.9333 -77.4167 248° West 310 357 22,000  Level Toronto Center
Sun 07:26:56 PM 43.9000 -77.5000 241° Southwest 300 345 22,000  Level Toronto Center
Sun 07:27:56 PM 43.8833 -77.6167 259° West 300 345 22,000  Level Toronto Center
Sun 07:28:56 PM 43.8500 -77.7333 248° West 300 345 22,000 -100 Level Toronto Center
Sun 07:29:56 PM 43.8167 -77.8333 245° Southwest 300 345 21,800 -1,100 Descending Toronto Center
Sun 07:30:56 PM 43.7833 -77.9500 248° West 310 357 19,800 -1,900 Descending Toronto Center
Sun 07:31:56 PM 43.7667 -78.0667 259° West 310 357 18,000 -1,850 Descending Toronto Center
Sun 07:32:56 PM 43.7333 -78.1833 248° West 310 357 16,100 -2,000 Descending Toronto Center
Sun 07:33:56 PM 43.7000 -78.3000 248° West 320 368 14,000 -1,800 Descending Toronto Center
Sun 07:34:56 PM 43.7000 -78.4167 270° West 310 357 12,500 -1,550 Descending Toronto Center
Sun 07:35:56 PM 43.7000 -78.5333 270° West 290 334 10,900 -1,350 Descending Toronto Center
Sun 07:36:56 PM 43.6833 -78.6167 255° West 280 322 9,800 -1,100 Descending Toronto Center
Sun 07:37:56 PM 43.6667 -78.7333 259° West 270 311 8,700 -1,000 Descending Toronto Center
Sun 07:38:56 PM 43.6333 -78.8333 245° Southwest 270 311 7,800 -950 Descending Toronto Center
Sun 07:39:56 PM 43.6167 -78.9167 255° West 260 299 6,800 -1,000 Descending Toronto Center
Sun 07:40:56 PM 43.6000 -79.0167 257° West 250 288 5,800 -1,050 Descending Toronto Center
Sun 07:41:56 PM 43.5833 -79.1000 255° West 250 288 4,700 -1,000 Descending Toronto Center
Sun 07:42:56 PM 43.5833 -79.2000 270° West 250 288 3,800 -1,000 Descending Toronto Center
Sun 07:43:56 PM 43.5667 -79.2833 255° West 250 288 2,700 -1,000 Descending Toronto Center
Sun 07:44:56 PM 43.5667 -79.3833 270° West 220 253 1,800 -750 Descending Toronto Center
Sun 07:45:56 PM 43.6000 -79.4000 340° North 150 173 1,200 -700 Descending Toronto Center
Sun 07:46:56 PM 43.6167 -79.3833 36° Northeast 120 138 400 -800 Descending Toronto Center

Login

Don't have an account? Register now (free) for customized features, flight alerts, and more!